createdAt,value
2022-12-11T00:00:13.000Z,-1.03
2022-12-11T00:01:13.000Z,-0.96
2022-12-11T00:02:13.000Z,-1.02
2022-12-11T00:03:13.000Z,-1.00
2022-12-11T00:04:13.000Z,-1.00
2022-12-11T00:05:13.000Z,-1.00
2022-12-11T00:06:13.000Z,-1.03
2022-12-11T00:07:13.000Z,-1.10
2022-12-11T00:08:13.000Z,-1.08
2022-12-11T00:09:13.000Z,-1.08
2022-12-11T00:10:13.000Z,-1.08
2022-12-11T00:11:13.000Z,-1.13
2022-12-11T00:12:13.000Z,-1.08
2022-12-11T00:13:13.000Z,-1.14
2022-12-11T00:14:13.000Z,-1.13
2022-12-11T00:15:13.000Z,-1.15
2022-12-11T00:16:13.000Z,-1.08
2022-12-11T00:17:13.000Z,-1.15
2022-12-11T00:18:13.000Z,-1.14
2022-12-11T00:19:13.000Z,-1.10
2022-12-11T00:20:13.000Z,-1.15
2022-12-11T00:21:13.000Z,-1.17
2022-12-11T00:22:13.000Z,-1.18
2022-12-11T00:23:13.000Z,-1.20
2022-12-11T00:24:13.000Z,-1.15
2022-12-11T00:25:13.000Z,-1.15
2022-12-11T00:26:13.000Z,-1.20
2022-12-11T00:27:13.000Z,-1.15
2022-12-11T00:28:13.000Z,-1.14
2022-12-11T00:29:13.000Z,-1.18
2022-12-11T00:30:13.000Z,-1.17
2022-12-11T00:31:13.000Z,-1.14
2022-12-11T00:32:13.000Z,-1.18
2022-12-11T00:33:13.000Z,-1.17
2022-12-11T00:34:13.000Z,-1.14
2022-12-11T00:35:13.000Z,-1.17
2022-12-11T00:36:13.000Z,-1.17
2022-12-11T00:37:13.000Z,-1.14
2022-12-11T00:38:13.000Z,-1.15
2022-12-11T00:39:13.000Z,-1.18
2022-12-11T00:40:13.000Z,-1.20
2022-12-11T00:41:13.000Z,-1.20
2022-12-11T00:42:13.000Z,-1.20
2022-12-11T00:43:13.000Z,-1.14
2022-12-11T00:44:13.000Z,-1.13
2022-12-11T00:45:13.000Z,-1.13
2022-12-11T00:46:13.000Z,-1.13
2022-12-11T00:47:13.000Z,-1.14
2022-12-11T00:48:13.000Z,-1.17
2022-12-11T00:49:13.000Z,-1.17
2022-12-11T00:50:13.000Z,-1.15
2022-12-11T00:51:13.000Z,-1.15
2022-12-11T00:52:13.000Z,-1.11
2022-12-11T00:53:13.000Z,-1.14
2022-12-11T00:54:13.000Z,-1.15
2022-12-11T00:55:13.000Z,-1.11
2022-12-11T00:56:13.000Z,-1.11
2022-12-11T00:57:13.000Z,-1.14
2022-12-11T00:58:13.000Z,-1.15
2022-12-11T00:59:13.000Z,-1.11
2022-12-11T01:00:13.000Z,-1.15
2022-12-11T01:01:13.000Z,-1.15
2022-12-11T01:02:13.000Z,-1.17
2022-12-11T01:03:13.000Z,-1.11
2022-12-11T01:04:13.000Z,-1.15
2022-12-11T01:05:13.000Z,-1.18
2022-12-11T01:06:13.000Z,-1.13
2022-12-11T01:07:13.000Z,-1.13
2022-12-11T01:08:13.000Z,-1.20
2022-12-11T01:09:13.000Z,-1.20
2022-12-11T01:10:13.000Z,-1.17
2022-12-11T01:11:13.000Z,-1.15
2022-12-11T01:12:13.000Z,-1.20
2022-12-11T01:13:13.000Z,-1.15
2022-12-11T01:14:13.000Z,-1.17
2022-12-11T01:15:13.000Z,-1.15
2022-12-11T01:16:13.000Z,-1.18
2022-12-11T01:17:13.000Z,-1.20
2022-12-11T01:18:13.000Z,-1.20
2022-12-11T01:19:13.000Z,-1.15
2022-12-11T01:20:13.000Z,-1.23
2022-12-11T01:21:13.000Z,-1.17
2022-12-11T01:22:12.000Z,-1.17
2022-12-11T01:23:12.000Z,-1.23
2022-12-11T01:24:12.000Z,-1.20
2022-12-11T01:25:12.000Z,-1.18
2022-12-11T01:26:12.000Z,-1.20
2022-12-11T01:27:12.000Z,-1.18
2022-12-11T01:28:12.000Z,-1.18
2022-12-11T01:29:12.000Z,-1.20
2022-12-11T01:30:12.000Z,-1.21
2022-12-11T01:31:12.000Z,-1.18
2022-12-11T01:32:12.000Z,-1.18
2022-12-11T01:33:12.000Z,-1.21
2022-12-11T01:34:12.000Z,-1.15
2022-12-11T01:35:12.000Z,-1.21
2022-12-11T01:36:12.000Z,-1.18
2022-12-11T01:37:12.000Z,-1.25
2022-12-11T01:38:12.000Z,-1.21
2022-12-11T01:39:12.000Z,-1.26
2022-12-11T01:40:12.000Z,-1.23
2022-12-11T01:41:12.000Z,-1.26
2022-12-11T01:42:12.000Z,-1.26
2022-12-11T01:43:12.000Z,-1.25
2022-12-11T01:44:12.000Z,-1.23
2022-12-11T01:45:12.000Z,-1.21
2022-12-11T01:46:12.000Z,-1.25
2022-12-11T01:47:12.000Z,-1.25
2022-12-11T01:48:12.000Z,-1.21
2022-12-11T01:49:12.000Z,-1.23
2022-12-11T01:50:12.000Z,-1.21
2022-12-11T01:51:12.000Z,-1.25
2022-12-11T01:52:12.000Z,-1.25
2022-12-11T01:53:12.000Z,-1.17
2022-12-11T01:54:12.000Z,-1.21
2022-12-11T01:55:12.000Z,-1.25
2022-12-11T01:56:12.000Z,-1.21
2022-12-11T01:57:12.000Z,-1.20
2022-12-11T01:58:12.000Z,-1.18
2022-12-11T01:59:12.000Z,-1.23
2022-12-11T02:00:12.000Z,-1.20
2022-12-11T02:01:12.000Z,-1.20
2022-12-11T02:02:12.000Z,-1.20
2022-12-11T02:03:12.000Z,-1.15
2022-12-11T02:04:12.000Z,-1.17
2022-12-11T02:05:12.000Z,-1.21
2022-12-11T02:06:12.000Z,-1.20
2022-12-11T02:07:12.000Z,-1.18
2022-12-11T02:08:12.000Z,-1.15
2022-12-11T02:09:12.000Z,-1.15
2022-12-11T02:10:12.000Z,-1.18
2022-12-11T02:11:12.000Z,-1.17
2022-12-11T02:12:12.000Z,-1.14
2022-12-11T02:13:12.000Z,-1.20
2022-12-11T02:14:12.000Z,-1.14
2022-12-11T02:15:12.000Z,-1.21
2022-12-11T02:16:12.000Z,-1.15
2022-12-11T02:17:12.000Z,-1.21
2022-12-11T02:18:12.000Z,-1.17
2022-12-11T02:19:12.000Z,-1.23
2022-12-11T02:20:12.000Z,-1.15
2022-12-11T02:21:12.000Z,-1.20
2022-12-11T02:22:12.000Z,-1.21
2022-12-11T02:23:12.000Z,-1.23
2022-12-11T02:24:12.000Z,-1.18
2022-12-11T02:25:12.000Z,-1.18
2022-12-11T02:26:12.000Z,-1.21
2022-12-11T02:27:12.000Z,-1.18
2022-12-11T02:28:12.000Z,-1.25
2022-12-11T02:29:12.000Z,-1.21
2022-12-11T02:30:12.000Z,-1.23
2022-12-11T02:31:12.000Z,-1.26
2022-12-11T02:32:12.000Z,-1.21
2022-12-11T02:33:12.000Z,-1.26
2022-12-11T02:34:12.000Z,-1.21
2022-12-11T02:35:12.000Z,-1.18
2022-12-11T02:36:12.000Z,-1.23
2022-12-11T02:37:12.000Z,-1.23
2022-12-11T02:38:12.000Z,-1.18
2022-12-11T02:39:12.000Z,-1.17
2022-12-11T02:40:12.000Z,-1.20
2022-12-11T02:41:12.000Z,-1.23
2022-12-11T02:42:12.000Z,-1.21
2022-12-11T02:43:12.000Z,-1.21
2022-12-11T02:44:12.000Z,-1.20
2022-12-11T02:45:12.000Z,-1.25
2022-12-11T02:46:12.000Z,-1.25
2022-12-11T02:47:12.000Z,-1.25
2022-12-11T02:48:12.000Z,-1.23
2022-12-11T02:49:12.000Z,-1.23
2022-12-11T02:50:12.000Z,-1.26
2022-12-11T02:51:12.000Z,-1.23
2022-12-11T02:52:12.000Z,-1.28
2022-12-11T02:53:12.000Z,-1.23
2022-12-11T02:54:12.000Z,-1.32
2022-12-11T02:55:12.000Z,-1.26
2022-12-11T02:56:12.000Z,-1.25
2022-12-11T02:57:12.000Z,-1.28
2022-12-11T02:58:12.000Z,-1.26
2022-12-11T02:59:12.000Z,-1.28
2022-12-11T03:00:12.000Z,-1.32
2022-12-11T03:01:12.000Z,-1.29
2022-12-11T03:02:12.000Z,-1.29
2022-12-11T03:03:12.000Z,-1.31
2022-12-11T03:04:12.000Z,-1.31
2022-12-11T03:05:12.000Z,-1.33
2022-12-11T03:06:12.000Z,-1.36
2022-12-11T03:07:12.000Z,-1.36
2022-12-11T03:08:12.000Z,-1.38
2022-12-11T03:09:11.000Z,-1.38
2022-12-11T03:10:11.000Z,-1.38
2022-12-11T03:11:11.000Z,-1.35
2022-12-11T03:12:11.000Z,-1.35
2022-12-11T03:13:11.000Z,-1.39
2022-12-11T03:14:11.000Z,-1.41
2022-12-11T03:15:11.000Z,-1.41
2022-12-11T03:16:11.000Z,-1.38
2022-12-11T03:17:11.000Z,-1.39
2022-12-11T03:18:11.000Z,-1.44
2022-12-11T03:19:11.000Z,-1.43
2022-12-11T03:20:11.000Z,-1.39
2022-12-11T03:21:11.000Z,-1.43
2022-12-11T03:22:11.000Z,-1.41
2022-12-11T03:23:11.000Z,-1.43
2022-12-11T03:24:11.000Z,-1.43
2022-12-11T03:25:11.000Z,-1.47
2022-12-11T03:26:11.000Z,-1.44
2022-12-11T03:27:11.000Z,-1.49
2022-12-11T03:28:11.000Z,-1.47
2022-12-11T03:29:11.000Z,-1.47
2022-12-11T03:30:11.000Z,-1.46
2022-12-11T03:31:11.000Z,-1.47
2022-12-11T03:32:11.000Z,-1.49
2022-12-11T03:33:11.000Z,-1.47
2022-12-11T03:34:11.000Z,-1.46
2022-12-11T03:35:11.000Z,-1.47
2022-12-11T03:36:11.000Z,-1.43
2022-12-11T03:43:29.000Z,-1.49
2022-12-11T03:43:29.000Z,-1.47
2022-12-11T03:44:29.000Z,-1.47
2022-12-11T03:45:29.000Z,-1.51
2022-12-11T03:46:29.000Z,-1.54
2022-12-11T03:47:29.000Z,-1.51
2022-12-11T03:47:29.000Z,-1.51
2022-12-11T03:48:29.000Z,-1.49
2022-12-11T03:48:29.000Z,-1.49
2022-12-11T03:49:29.000Z,-1.53
2022-12-11T03:49:29.000Z,-1.53
2022-12-11T03:50:29.000Z,-1.49
2022-12-11T03:50:29.000Z,-1.49
2022-12-11T03:51:29.000Z,-1.56
2022-12-11T03:51:29.000Z,-1.56
2022-12-11T03:52:29.000Z,-1.56
2022-12-11T03:53:29.000Z,-1.53
2022-12-11T03:54:29.000Z,-1.50
2022-12-11T03:55:29.000Z,-1.49
2022-12-11T03:56:29.000Z,-1.53
2022-12-11T03:57:29.000Z,-1.51
2022-12-11T03:58:29.000Z,-1.51
2022-12-11T03:59:29.000Z,-1.53
2022-12-11T04:00:29.000Z,-1.53
2022-12-11T04:01:29.000Z,-1.51
2022-12-11T04:02:29.000Z,-1.54
2022-12-11T04:03:29.000Z,-1.54
2022-12-11T04:04:29.000Z,-1.56
2022-12-11T04:05:29.000Z,-1.53
2022-12-11T04:06:29.000Z,-1.53
2022-12-11T04:07:29.000Z,-1.54
2022-12-11T04:08:29.000Z,-1.53
2022-12-11T04:09:29.000Z,-1.57
2022-12-11T04:10:29.000Z,-1.57
2022-12-11T04:11:29.000Z,-1.51
2022-12-11T04:12:29.000Z,-1.54
2022-12-11T04:13:29.000Z,-1.54
2022-12-11T04:14:29.000Z,-1.59
2022-12-11T04:15:29.000Z,-1.59
2022-12-11T04:16:29.000Z,-1.53
2022-12-11T04:17:29.000Z,-1.54
2022-12-11T04:18:29.000Z,-1.53
2022-12-11T04:19:29.000Z,-1.51
2022-12-11T04:20:29.000Z,-1.54
2022-12-11T04:21:29.000Z,-1.61
2022-12-11T04:22:29.000Z,-1.61
2022-12-11T04:23:29.000Z,-1.59
2022-12-11T04:24:29.000Z,-1.54
2022-12-11T04:25:29.000Z,-1.56
2022-12-11T04:26:29.000Z,-1.61
2022-12-11T04:27:29.000Z,-1.61
2022-12-11T04:28:29.000Z,-1.59
2022-12-11T04:29:29.000Z,-1.61
2022-12-11T04:30:29.000Z,-1.62
2022-12-11T04:31:29.000Z,-1.61
2022-12-11T04:32:29.000Z,-1.61
2022-12-11T04:33:29.000Z,-1.59
2022-12-11T04:34:29.000Z,-1.57
2022-12-11T04:35:29.000Z,-1.61
2022-12-11T04:36:29.000Z,-1.64
2022-12-11T04:37:29.000Z,-1.59
2022-12-11T04:38:29.000Z,-1.59
2022-12-11T04:39:29.000Z,-1.59
2022-12-11T04:40:29.000Z,-1.57
2022-12-11T04:41:29.000Z,-1.62
2022-12-11T04:42:29.000Z,-1.64
2022-12-11T04:43:29.000Z,-1.61
2022-12-11T04:44:29.000Z,-1.64
2022-12-11T04:45:29.000Z,-1.62
2022-12-11T04:46:29.000Z,-1.64
2022-12-11T04:47:29.000Z,-1.62
2022-12-11T04:48:29.000Z,-1.65
2022-12-11T04:49:29.000Z,-1.65
2022-12-11T04:50:29.000Z,-1.67
2022-12-11T04:51:29.000Z,-1.65
2022-12-11T04:52:29.000Z,-1.70
2022-12-11T04:53:28.000Z,-1.70
2022-12-11T04:54:28.000Z,-1.68
2022-12-11T04:55:28.000Z,-1.70
2022-12-11T04:56:28.000Z,-1.65
2022-12-11T04:57:28.000Z,-1.65
2022-12-11T04:58:28.000Z,-1.70
2022-12-11T04:59:28.000Z,-1.70
2022-12-11T05:00:28.000Z,-1.71
2022-12-11T05:01:28.000Z,-1.74
2022-12-11T05:02:28.000Z,-1.72
2022-12-11T05:03:28.000Z,-1.74
2022-12-11T05:04:28.000Z,-1.74
2022-12-11T05:05:28.000Z,-1.68
2022-12-11T05:06:28.000Z,-1.72
2022-12-11T05:07:28.000Z,-1.75
2022-12-11T05:08:28.000Z,-1.77
2022-12-11T05:09:28.000Z,-1.78
2022-12-11T05:10:28.000Z,-1.75
2022-12-11T05:11:28.000Z,-1.77
2022-12-11T05:12:28.000Z,-1.80
2022-12-11T05:13:28.000Z,-1.80
2022-12-11T05:14:28.000Z,-1.74
2022-12-11T05:15:28.000Z,-1.82
2022-12-11T05:16:28.000Z,-1.80
2022-12-11T05:17:28.000Z,-1.82
2022-12-11T05:18:28.000Z,-1.77
2022-12-11T05:19:28.000Z,-1.78
2022-12-11T05:20:28.000Z,-1.77
2022-12-11T05:21:28.000Z,-1.78
2022-12-11T05:22:28.000Z,-1.78
2022-12-11T05:23:28.000Z,-1.80
2022-12-11T05:24:28.000Z,-1.77
2022-12-11T05:25:28.000Z,-1.80
2022-12-11T05:26:28.000Z,-1.80
2022-12-11T05:27:28.000Z,-1.78
2022-12-11T05:28:28.000Z,-1.85
2022-12-11T05:29:28.000Z,-1.78
2022-12-11T05:30:28.000Z,-1.85
2022-12-11T05:31:28.000Z,-1.78
2022-12-11T05:32:28.000Z,-1.82
2022-12-11T05:33:28.000Z,-1.82
2022-12-11T05:34:28.000Z,-1.78
2022-12-11T05:35:28.000Z,-1.83
2022-12-11T05:36:28.000Z,-1.80
2022-12-11T05:37:28.000Z,-1.78
2022-12-11T05:38:28.000Z,-1.80
2022-12-11T05:39:28.000Z,-1.82
2022-12-11T05:40:28.000Z,-1.78
2022-12-11T05:41:28.000Z,-1.77
2022-12-11T05:42:28.000Z,-1.80
2022-12-11T05:43:28.000Z,-1.82
2022-12-11T05:44:28.000Z,-1.78
2022-12-11T05:45:28.000Z,-1.80
2022-12-11T05:46:28.000Z,-1.77
2022-12-11T05:47:28.000Z,-1.82
2022-12-11T05:48:28.000Z,-1.80
2022-12-11T05:49:28.000Z,-1.82
2022-12-11T05:50:28.000Z,-1.78
2022-12-11T05:51:28.000Z,-1.77
2022-12-11T05:52:28.000Z,-1.78
2022-12-11T05:53:28.000Z,-1.82
2022-12-11T05:54:28.000Z,-1.78
2022-12-11T05:55:28.000Z,-1.82
2022-12-11T05:56:28.000Z,-1.82
2022-12-11T05:57:28.000Z,-1.75
2022-12-11T05:58:28.000Z,-1.82
2022-12-11T05:59:28.000Z,-1.85
2022-12-11T06:00:28.000Z,-1.80
2022-12-11T06:01:28.000Z,-1.80
2022-12-11T06:02:28.000Z,-1.83
2022-12-11T06:03:28.000Z,-1.77
2022-12-11T06:04:28.000Z,-1.83
2022-12-11T06:05:28.000Z,-1.77
2022-12-11T06:06:28.000Z,-1.83
2022-12-11T06:07:28.000Z,-1.75
2022-12-11T06:08:28.000Z,-1.82
2022-12-11T06:09:28.000Z,-1.82
2022-12-11T06:10:28.000Z,-1.83
2022-12-11T06:11:28.000Z,-1.82
2022-12-11T06:12:28.000Z,-1.82
2022-12-11T06:13:28.000Z,-1.86
2022-12-11T06:14:28.000Z,-1.85
2022-12-11T06:15:28.000Z,-1.86
2022-12-11T06:16:28.000Z,-1.88
2022-12-11T06:17:28.000Z,-1.86
2022-12-11T06:18:28.000Z,-1.85
2022-12-11T06:19:28.000Z,-1.80
2022-12-11T06:20:28.000Z,-1.85
2022-12-11T06:21:28.000Z,-1.85
2022-12-11T06:22:28.000Z,-1.88
2022-12-11T06:23:28.000Z,-1.85
2022-12-11T06:24:28.000Z,-1.86
2022-12-11T06:25:28.000Z,-1.86
2022-12-11T06:26:28.000Z,-1.86
2022-12-11T06:27:28.000Z,-1.88
2022-12-11T06:28:28.000Z,-1.86
2022-12-11T06:29:28.000Z,-1.89
2022-12-11T06:30:28.000Z,-1.89
2022-12-11T06:31:28.000Z,-1.86
2022-12-11T06:32:28.000Z,-1.88
2022-12-11T06:33:28.000Z,-1.89
2022-12-11T06:34:28.000Z,-1.88
2022-12-11T06:35:28.000Z,-1.83
2022-12-11T06:36:28.000Z,-1.85
2022-12-11T06:37:28.000Z,-1.85
2022-12-11T06:38:28.000Z,-1.88
2022-12-11T06:39:28.000Z,-1.89
2022-12-11T06:40:28.000Z,-1.90
2022-12-11T06:41:28.000Z,-1.89
2022-12-11T06:42:28.000Z,-1.90
2022-12-11T06:43:27.000Z,-1.92
2022-12-11T06:44:27.000Z,-1.86
2022-12-11T06:45:27.000Z,-1.93
2022-12-11T06:46:27.000Z,-1.96
2022-12-11T06:47:27.000Z,-1.95
2022-12-11T06:48:27.000Z,-1.98
2022-12-11T06:49:27.000Z,-1.95
2022-12-11T06:50:27.000Z,-1.93
2022-12-11T06:51:27.000Z,-1.93
2022-12-11T06:52:27.000Z,-1.93
2022-12-11T06:53:27.000Z,-1.95
2022-12-11T06:54:27.000Z,-1.93
2022-12-11T06:55:27.000Z,-1.95
2022-12-11T06:56:27.000Z,-1.90
2022-12-11T06:57:27.000Z,-1.89
2022-12-11T06:58:27.000Z,-1.89
2022-12-11T06:59:27.000Z,-1.93
2022-12-11T07:00:27.000Z,-1.92
2022-12-11T07:01:27.000Z,-1.93
2022-12-11T07:02:27.000Z,-1.95
2022-12-11T07:03:27.000Z,-1.93
2022-12-11T07:04:27.000Z,-1.90
2022-12-11T07:05:27.000Z,-1.90
2022-12-11T07:06:27.000Z,-1.89
2022-12-11T07:07:27.000Z,-1.90
2022-12-11T07:08:27.000Z,-1.90
2022-12-11T07:09:27.000Z,-1.89
2022-12-11T07:10:27.000Z,-1.85
2022-12-11T07:11:27.000Z,-1.88
2022-12-11T07:12:27.000Z,-1.85
2022-12-11T07:13:27.000Z,-1.88
2022-12-11T07:14:27.000Z,-1.85
2022-12-11T07:15:27.000Z,-1.85
2022-12-11T07:16:27.000Z,-1.85
2022-12-11T07:17:27.000Z,-1.82
2022-12-11T07:18:27.000Z,-1.82
2022-12-11T07:19:27.000Z,-1.83
2022-12-11T07:20:27.000Z,-1.77
2022-12-11T07:21:27.000Z,-1.80
2022-12-11T07:22:27.000Z,-1.74
2022-12-11T07:23:27.000Z,-1.78
2022-12-11T07:24:27.000Z,-1.72
2022-12-11T07:25:27.000Z,-1.75
2022-12-11T07:26:27.000Z,-1.77
2022-12-11T07:27:27.000Z,-1.78
2022-12-11T07:28:27.000Z,-1.80
2022-12-11T07:29:27.000Z,-1.74
2022-12-11T07:30:27.000Z,-1.82
2022-12-11T07:31:27.000Z,-1.71
2022-12-11T07:32:27.000Z,-1.75
2022-12-11T07:33:27.000Z,-1.74
2022-12-11T07:34:27.000Z,-1.74
2022-12-11T07:35:27.000Z,-1.72
2022-12-11T07:36:27.000Z,-1.74
2022-12-11T07:37:27.000Z,-1.72
2022-12-11T07:38:27.000Z,-1.71
2022-12-11T07:39:27.000Z,-1.72
2022-12-11T07:40:27.000Z,-1.75
2022-12-11T07:41:27.000Z,-1.72
2022-12-11T07:42:27.000Z,-1.68
2022-12-11T07:43:27.000Z,-1.68
2022-12-11T07:44:27.000Z,-1.67
2022-12-11T07:45:27.000Z,-1.67
2022-12-11T07:46:27.000Z,-1.67
2022-12-11T07:47:27.000Z,-1.65
2022-12-11T07:48:27.000Z,-1.62
2022-12-11T07:49:27.000Z,-1.64
2022-12-11T07:50:27.000Z,-1.62
2022-12-11T07:51:27.000Z,-1.61
2022-12-11T07:52:27.000Z,-1.57
2022-12-11T07:53:27.000Z,-1.56
2022-12-11T07:54:27.000Z,-1.51
2022-12-11T07:55:27.000Z,-1.54
2022-12-11T07:56:27.000Z,-1.54
2022-12-11T07:57:27.000Z,-1.53
2022-12-11T07:58:27.000Z,-1.53
2022-12-11T07:59:27.000Z,-1.54
2022-12-11T08:00:27.000Z,-1.53
2022-12-11T08:01:27.000Z,-1.50
2022-12-11T08:02:27.000Z,-1.53
2022-12-11T08:03:27.000Z,-1.53
2022-12-11T08:04:27.000Z,-1.49
2022-12-11T08:05:27.000Z,-1.53
2022-12-11T08:06:27.000Z,-1.47
2022-12-11T08:07:27.000Z,-1.50
2022-12-11T08:08:27.000Z,-1.43
2022-12-11T08:09:27.000Z,-1.47
2022-12-11T08:10:27.000Z,-1.39
2022-12-11T08:11:27.000Z,-1.44
2022-12-11T08:12:27.000Z,-1.39
2022-12-11T08:12:27.000Z,-1.39
2022-12-11T08:13:27.000Z,-1.41
2022-12-11T08:13:27.000Z,-1.41
2022-12-11T08:14:27.000Z,-1.36
2022-12-11T08:14:27.000Z,-1.36
2022-12-11T08:15:27.000Z,-1.38
2022-12-11T08:15:27.000Z,-1.38
2022-12-11T08:16:27.000Z,-1.41
2022-12-11T08:16:27.000Z,-1.41
2022-12-11T08:17:27.000Z,-1.33
2022-12-11T08:18:27.000Z,-1.36
2022-12-11T08:19:27.000Z,-1.33
2022-12-11T08:20:27.000Z,-1.35
2022-12-11T08:21:27.000Z,-1.33
2022-12-11T08:22:27.000Z,-1.35
2022-12-11T08:23:27.000Z,-1.28
2022-12-11T08:24:27.000Z,-1.32
2022-12-11T08:25:27.000Z,-1.33
2022-12-11T08:26:27.000Z,-1.26
2022-12-11T08:27:27.000Z,-1.26
2022-12-11T08:28:27.000Z,-1.31
2022-12-11T08:29:27.000Z,-1.25
2022-12-11T08:30:27.000Z,-1.31
2022-12-11T08:31:27.000Z,-1.25
2022-12-11T08:32:27.000Z,-1.25
2022-12-11T08:33:27.000Z,-1.25
2022-12-11T08:34:26.000Z,-1.25
2022-12-11T08:35:26.000Z,-1.20
2022-12-11T08:36:26.000Z,-1.21
2022-12-11T08:37:26.000Z,-1.20
2022-12-11T08:38:26.000Z,-1.14
2022-12-11T08:39:26.000Z,-1.20
2022-12-11T08:40:26.000Z,-1.13
2022-12-11T08:41:26.000Z,-1.17
2022-12-11T08:42:26.000Z,-1.10
2022-12-11T08:43:26.000Z,-1.07
2022-12-11T08:44:26.000Z,-1.08
2022-12-11T08:45:26.000Z,-1.07
2022-12-11T08:46:26.000Z,-1.07
2022-12-11T08:47:26.000Z,-1.13
2022-12-11T08:48:26.000Z,-1.00
2022-12-11T08:49:26.000Z,-1.03
2022-12-11T08:50:26.000Z,-0.97
2022-12-11T08:51:26.000Z,-1.00
2022-12-11T08:52:26.000Z,-0.95
2022-12-11T08:53:26.000Z,-0.95
2022-12-11T08:54:26.000Z,-0.92
2022-12-11T08:55:26.000Z,-0.89
2022-12-11T08:56:26.000Z,-0.89
2022-12-11T08:57:26.000Z,-0.83
2022-12-11T08:58:26.000Z,-0.77
2022-12-11T08:59:26.000Z,-0.81
2022-12-11T09:00:26.000Z,-0.77
2022-12-11T09:01:26.000Z,-0.77
2022-12-11T09:02:26.000Z,-0.74
2022-12-11T09:03:26.000Z,-0.71
2022-12-11T09:04:26.000Z,-0.67
2022-12-11T09:05:26.000Z,-0.67
2022-12-11T09:06:26.000Z,-0.63
2022-12-11T09:07:26.000Z,-0.65
2022-12-11T09:08:26.000Z,-0.60
2022-12-11T09:09:26.000Z,-0.56
2022-12-11T09:10:26.000Z,-0.58
2022-12-11T09:11:26.000Z,-0.59
2022-12-11T09:12:26.000Z,-0.56
2022-12-11T09:13:26.000Z,-0.52
2022-12-11T09:14:26.000Z,-0.49
2022-12-11T09:15:26.000Z,-0.50
2022-12-11T09:16:26.000Z,-0.49
2022-12-11T09:17:26.000Z,-0.42
2022-12-11T09:18:26.000Z,-0.42
2022-12-11T09:19:26.000Z,-0.44
2022-12-11T09:20:26.000Z,-0.45
2022-12-11T09:21:26.000Z,-0.39
2022-12-11T09:22:26.000Z,-0.41
2022-12-11T09:23:26.000Z,-0.39
2022-12-11T09:24:26.000Z,-0.32
2022-12-11T09:25:26.000Z,-0.30
2022-12-11T09:26:26.000Z,-0.30
2022-12-11T09:27:26.000Z,-0.23
2022-12-11T09:28:26.000Z,-0.23
2022-12-11T09:29:26.000Z,-0.23
2022-12-11T09:30:26.000Z,-0.21
2022-12-11T09:31:26.000Z,-0.16
2022-12-11T09:32:26.000Z,-0.14
2022-12-11T09:33:26.000Z,-0.16
2022-12-11T09:34:26.000Z,-0.14
2022-12-11T09:35:26.000Z,-0.17
2022-12-11T09:36:26.000Z,-0.09
2022-12-11T09:37:26.000Z,-0.13
2022-12-11T09:38:26.000Z,-0.08
2022-12-11T09:39:26.000Z,-0.09
2022-12-11T09:40:26.000Z,-0.08
2022-12-11T09:41:26.000Z,-0.06
2022-12-11T09:42:26.000Z,-0.05
2022-12-11T09:43:26.000Z,-0.03
2022-12-11T09:44:26.000Z,0.02
2022-12-11T09:45:26.000Z,0.01
2022-12-11T09:46:26.000Z,-0.02
2022-12-11T09:47:26.000Z,0.05
2022-12-11T09:48:26.000Z,0.02
2022-12-11T09:49:26.000Z,0.02
2022-12-11T09:50:26.000Z,0.12
2022-12-11T09:51:26.000Z,0.12
2022-12-11T09:52:26.000Z,0.13
2022-12-11T09:53:26.000Z,0.13
2022-12-11T09:54:26.000Z,0.16
2022-12-11T09:55:26.000Z,0.19
2022-12-11T09:56:26.000Z,0.17
2022-12-11T09:57:26.000Z,0.17
2022-12-11T09:58:26.000Z,0.23
2022-12-11T09:59:26.000Z,0.17
2022-12-11T10:00:26.000Z,0.23
2022-12-11T10:01:26.000Z,0.23
2022-12-11T10:02:26.000Z,0.22
2022-12-11T10:03:26.000Z,0.30
2022-12-11T10:04:26.000Z,0.26
2022-12-11T10:05:26.000Z,0.26
2022-12-11T10:06:26.000Z,0.28
2022-12-11T10:07:26.000Z,0.23
2022-12-11T10:08:26.000Z,0.28
2022-12-11T10:09:26.000Z,0.20
2022-12-11T10:10:26.000Z,0.25
2022-12-11T10:11:26.000Z,0.19
2022-12-11T10:12:26.000Z,0.17
2022-12-11T10:13:26.000Z,0.16
2022-12-11T10:14:26.000Z,0.19
2022-12-11T10:15:26.000Z,0.22
2022-12-11T10:16:26.000Z,0.23
2022-12-11T10:17:26.000Z,0.19
2022-12-11T10:18:26.000Z,0.16
2022-12-11T10:19:26.000Z,0.20
2022-12-11T10:20:26.000Z,0.17
2022-12-11T10:21:26.000Z,0.13
2022-12-11T10:22:26.000Z,0.12
2022-12-11T10:23:25.000Z,0.15
2022-12-11T10:24:25.000Z,0.13
2022-12-11T10:25:25.000Z,0.16
2022-12-11T10:26:25.000Z,0.10
2022-12-11T10:27:25.000Z,0.07
2022-12-11T10:28:25.000Z,0.10
2022-12-11T10:29:25.000Z,0.04
2022-12-11T10:30:25.000Z,0.04
2022-12-11T10:31:25.000Z,0.01
2022-12-11T10:32:25.000Z,-0.05
2022-12-11T10:33:25.000Z,-0.03
2022-12-11T10:34:25.000Z,-0.03
2022-12-11T10:35:25.000Z,-0.05
2022-12-11T10:36:25.000Z,-0.01
2022-12-11T10:37:25.000Z,-0.03
2022-12-11T10:38:25.000Z,-0.08
2022-12-11T10:39:25.000Z,-0.06
2022-12-11T10:40:25.000Z,-0.09
2022-12-11T10:41:25.000Z,-0.09
2022-12-11T10:42:25.000Z,-0.03
2022-12-11T10:43:25.000Z,-0.08
2022-12-11T10:44:25.000Z,-0.06
2022-12-11T10:45:25.000Z,-0.09
2022-12-11T10:46:25.000Z,-0.06
2022-12-11T10:47:25.000Z,-0.03
2022-12-11T10:48:25.000Z,-0.03
2022-12-11T10:49:25.000Z,-0.06
2022-12-11T10:50:25.000Z,-0.06
2022-12-11T10:51:25.000Z,-0.02
2022-12-11T10:52:25.000Z,-0.03
2022-12-11T10:53:25.000Z,-0.06
2022-12-11T10:54:25.000Z,-0.03
2022-12-11T10:55:25.000Z,-0.06
2022-12-11T10:56:25.000Z,-0.05
2022-12-11T10:57:25.000Z,-0.03
2022-12-11T10:58:25.000Z,0.02
2022-12-11T10:59:25.000Z,0.01
2022-12-11T11:00:25.000Z,-0.01
2022-12-11T11:01:25.000Z,0.02
2022-12-11T11:02:25.000Z,0.02
2022-12-11T11:03:25.000Z,-0.03
2022-12-11T11:04:25.000Z,-0.02
2022-12-11T11:05:25.000Z,-0.03
2022-12-11T11:06:25.000Z,-0.05
2022-12-11T11:07:25.000Z,0.01
2022-12-11T11:08:25.000Z,0.01
2022-12-11T11:09:25.000Z,-0.02
2022-12-11T11:10:25.000Z,-0.06
2022-12-11T11:11:25.000Z,-0.08
2022-12-11T11:12:25.000Z,-0.06
2022-12-11T11:13:25.000Z,-0.06
2022-12-11T11:14:25.000Z,-0.12
2022-12-11T11:15:25.000Z,-0.12
2022-12-11T11:16:25.000Z,-0.13
2022-12-11T11:17:25.000Z,-0.09
2022-12-11T11:18:25.000Z,-0.17
2022-12-11T11:19:25.000Z,-0.17
2022-12-11T11:20:25.000Z,-0.12
2022-12-11T11:21:25.000Z,-0.12
2022-12-11T11:22:25.000Z,-0.16
2022-12-11T11:23:25.000Z,-0.12
2022-12-11T11:24:25.000Z,-0.16
2022-12-11T11:25:25.000Z,-0.14
2022-12-11T11:26:25.000Z,-0.16
2022-12-11T11:27:25.000Z,-0.14
2022-12-11T11:28:25.000Z,-0.12
2022-12-11T11:29:25.000Z,-0.16
2022-12-11T11:30:25.000Z,-0.14
2022-12-11T11:31:25.000Z,-0.17
2022-12-11T11:38:42.000Z,-0.24
2022-12-11T11:38:42.000Z,-0.21
2022-12-11T11:39:42.000Z,-0.30
2022-12-11T11:40:42.000Z,-0.24
2022-12-11T11:41:42.000Z,-0.26
2022-12-11T11:42:42.000Z,-0.26
2022-12-11T11:43:42.000Z,-0.32
2022-12-11T11:44:42.000Z,-0.27
2022-12-11T11:45:42.000Z,-0.30
2022-12-11T11:46:42.000Z,-0.27
2022-12-11T11:47:42.000Z,-0.26
2022-12-11T11:48:42.000Z,-0.20
2022-12-11T11:49:42.000Z,-0.20
2022-12-11T11:50:42.000Z,-0.20
2022-12-11T11:51:42.000Z,-0.21
2022-12-11T11:52:42.000Z,-0.23
2022-12-11T11:53:42.000Z,-0.21
2022-12-11T11:54:42.000Z,-0.19
2022-12-11T11:55:42.000Z,-0.20
2022-12-11T11:56:42.000Z,-0.17
2022-12-11T11:57:42.000Z,-0.20
2022-12-11T11:58:42.000Z,-0.21
2022-12-11T11:59:42.000Z,-0.20
2022-12-11T12:00:42.000Z,-0.20
2022-12-11T12:01:42.000Z,-0.21
2022-12-11T12:02:42.000Z,-0.23
2022-12-11T12:03:42.000Z,-0.23
2022-12-11T12:04:42.000Z,-0.17
2022-12-11T12:05:42.000Z,-0.24
2022-12-11T12:06:42.000Z,-0.21
2022-12-11T12:07:42.000Z,-0.26
2022-12-11T12:08:42.000Z,-0.30
2022-12-11T12:09:42.000Z,-0.30
2022-12-11T12:10:42.000Z,-0.27
2022-12-11T12:11:42.000Z,-0.27
2022-12-11T12:12:42.000Z,-0.30
2022-12-11T12:12:42.000Z,-0.30
2022-12-11T12:13:42.000Z,-0.31
2022-12-11T12:13:42.000Z,-0.31
2022-12-11T12:14:42.000Z,-0.32
2022-12-11T12:14:42.000Z,-0.32
2022-12-11T12:15:42.000Z,-0.35
2022-12-11T12:15:42.000Z,-0.35
2022-12-11T12:16:42.000Z,-0.31
2022-12-11T12:16:42.000Z,-0.31
2022-12-11T12:17:42.000Z,-0.32
2022-12-11T12:18:42.000Z,-0.31
2022-12-11T12:19:42.000Z,-0.35
2022-12-11T12:20:42.000Z,-0.39
2022-12-11T12:21:42.000Z,-0.37
2022-12-11T12:22:42.000Z,-0.38
2022-12-11T12:23:42.000Z,-0.35
2022-12-11T12:24:42.000Z,-0.35
2022-12-11T12:25:42.000Z,-0.35
2022-12-11T12:26:42.000Z,-0.34
2022-12-11T12:27:42.000Z,-0.37
2022-12-11T12:28:42.000Z,-0.41
2022-12-11T12:29:42.000Z,-0.37
2022-12-11T12:30:42.000Z,-0.34
2022-12-11T12:31:42.000Z,-0.39
2022-12-11T12:32:42.000Z,-0.42
2022-12-11T12:33:42.000Z,-0.38
2022-12-11T12:34:42.000Z,-0.41
2022-12-11T12:35:42.000Z,-0.41
2022-12-11T12:36:42.000Z,-0.42
2022-12-11T12:37:42.000Z,-0.42
2022-12-11T12:38:42.000Z,-0.44
2022-12-11T12:39:42.000Z,-0.38
2022-12-11T12:40:42.000Z,-0.41
2022-12-11T12:41:42.000Z,-0.42
2022-12-11T12:42:42.000Z,-0.41
2022-12-11T12:43:42.000Z,-0.47
2022-12-11T12:44:42.000Z,-0.38
2022-12-11T12:45:42.000Z,-0.44
2022-12-11T12:46:42.000Z,-0.44
2022-12-11T12:53:59.000Z,-0.41
2022-12-11T12:53:59.000Z,-0.44
2022-12-11T12:54:59.000Z,-0.41